sensor_id;sensor_type;location;lat;lon;timestamp;pressure;altitude;pressure_sealevel;temperature;humidity
6453;BME280;3259;51.080;13.712;2023-06-04T00:00:35;100781.78;;;25.47;26.26
6453;BME280;3259;51.080;13.712;2023-06-04T00:03:23;100774.03;;;25.52;26.43
6453;BME280;3259;51.080;13.712;2023-06-04T00:06:12;100778.09;;;25.48;26.24
6453;BME280;3259;51.080;13.712;2023-06-04T00:09:01;100777.66;;;25.44;26.77
6453;BME280;3259;51.080;13.712;2023-06-04T00:11:50;100776.63;;;25.45;26.73
6453;BME280;3259;51.080;13.712;2023-06-04T00:14:39;100775.16;;;25.43;26.61
6453;BME280;3259;51.080;13.712;2023-06-04T00:17:29;100774.53;;;25.41;26.65
6453;BME280;3259;51.080;13.712;2023-06-04T00:20:18;100773.50;;;25.42;27.07
6453;BME280;3259;51.080;13.712;2023-06-04T00:23:07;100772.75;;;25.48;26.88
6453;BME280;3259;51.080;13.712;2023-06-04T00:25:55;100767.88;;;25.51;26.65
6453;BME280;3259;51.080;13.712;2023-06-04T00:28:44;100766.56;;;25.47;26.88
6453;BME280;3259;51.080;13.712;2023-06-04T00:31:33;100766.72;;;25.39;27.09
6453;BME280;3259;51.080;13.712;2023-06-04T00:34:23;100766.91;;;25.38;27.04
6453;BME280;3259;51.080;13.712;2023-06-04T00:37:12;100770.59;;;25.37;27.16
6453;BME280;3259;51.080;13.712;2023-06-04T00:40:01;100752.91;;;25.36;26.86
6453;BME280;3259;51.080;13.712;2023-06-04T00:42:50;100754.94;;;25.34;27.01
6453;BME280;3259;51.080;13.712;2023-06-04T00:45:40;100764.47;;;25.43;26.81
6453;BME280;3259;51.080;13.712;2023-06-04T00:48:30;100759.50;;;25.40;26.98
6453;BME280;3259;51.080;13.712;2023-06-04T00:51:20;100756.47;;;25.43;26.79
6453;BME280;3259;51.080;13.712;2023-06-04T00:54:09;100752.59;;;25.45;26.95
6453;BME280;3259;51.080;13.712;2023-06-04T00:56:59;100750.53;;;25.47;27.01
6453;BME280;3259;51.080;13.712;2023-06-04T00:59:48;100749.09;;;25.45;26.90
6453;BME280;3259;51.080;13.712;2023-06-04T01:02:38;100748.09;;;25.46;27.07
6453;BME280;3259;51.080;13.712;2023-06-04T01:05:34;100744.72;;;25.37;27.29
6453;BME280;3259;51.080;13.712;2023-06-04T01:08:27;100751.88;;;25.37;27.32
6453;BME280;3259;51.080;13.712;2023-06-04T01:11:16;100750.06;;;25.37;27.44
6453;BME280;3259;51.080;13.712;2023-06-04T01:14:06;100749.59;;;25.34;27.43
6453;BME280;3259;51.080;13.712;2023-06-04T01:16:59;100746.66;;;25.29;27.27
6453;BME280;3259;51.080;13.712;2023-06-04T01:20:07;100746.66;;;25.29;27.62
6453;BME280;3259;51.080;13.712;2023-06-04T01:23:14;100752.84;;;25.29;27.59
6453;BME280;3259;51.080;13.712;2023-06-04T01:26:04;100742.97;;;25.30;27.56
6453;BME280;3259;51.080;13.712;2023-06-04T01:28:54;100748.06;;;25.25;27.41
6453;BME280;3259;51.080;13.712;2023-06-04T01:31:43;100751.66;;;25.32;27.39
6453;BME280;3259;51.080;13.712;2023-06-04T01:34:43;100747.28;;;25.31;27.48
6453;BME280;3259;51.080;13.712;2023-06-04T01:37:32;100751.44;;;25.33;27.67
6453;BME280;3259;51.080;13.712;2023-06-04T01:40:22;100748.97;;;25.32;27.31
6453;BME280;3259;51.080;13.712;2023-06-04T01:43:13;100749.16;;;25.30;27.56
6453;BME280;3259;51.080;13.712;2023-06-04T01:46:02;100745.41;;;25.25;27.71
6453;BME280;3259;51.080;13.712;2023-06-04T01:48:51;100750.81;;;25.31;27.56
6453;BME280;3259;51.080;13.712;2023-06-04T01:51:40;100748.13;;;25.31;27.40
6453;BME280;3259;51.080;13.712;2023-06-04T01:54:28;100753.31;;;25.33;27.47
6453;BME280;3259;51.080;13.712;2023-06-04T01:57:20;100757.41;;;25.35;27.45
6453;BME280;3259;51.080;13.712;2023-06-04T02:00:11;100742.97;;;25.30;27.67
6453;BME280;3259;51.080;13.712;2023-06-04T02:03:01;100749.72;;;25.26;27.50
6453;BME280;3259;51.080;13.712;2023-06-04T02:05:50;100746.66;;;25.29;27.44
6453;BME280;3259;51.080;13.712;2023-06-04T02:08:39;100752.06;;;25.35;27.15
6453;BME280;3259;51.080;13.712;2023-06-04T02:11:29;100736.75;;;25.23;27.69
6453;BME280;3259;51.080;13.712;2023-06-04T02:14:17;100753.94;;;25.35;27.34
6453;BME280;3259;51.080;13.712;2023-06-04T02:17:08;100745.53;;;25.38;27.33
6453;BME280;3259;51.080;13.712;2023-06-04T02:19:59;100745.13;;;25.41;27.25
6453;BME280;3259;51.080;13.712;2023-06-04T02:22:50;100757.13;;;25.45;26.96
6453;BME280;3259;51.080;13.712;2023-06-04T02:25:39;100752.53;;;25.39;27.32
6453;BME280;3259;51.080;13.712;2023-06-04T02:28:28;100763.97;;;25.33;27.26
6453;BME280;3259;51.080;13.712;2023-06-04T02:31:17;100763.41;;;25.37;27.10
6453;BME280;3259;51.080;13.712;2023-06-04T02:34:07;100752.19;;;25.48;26.85
6453;BME280;3259;51.080;13.712;2023-06-04T02:36:56;100763.59;;;25.36;27.47
6453;BME280;3259;51.080;13.712;2023-06-04T02:39:45;100758.25;;;25.36;27.47
6453;BME280;3259;51.080;13.712;2023-06-04T02:42:34;100760.41;;;25.47;26.89
6453;BME280;3259;51.080;13.712;2023-06-04T02:45:23;100760.81;;;25.44;26.96
6453;BME280;3259;51.080;13.712;2023-06-04T02:48:11;100765.88;;;25.39;27.43
6453;BME280;3259;51.080;13.712;2023-06-04T02:51:01;100765.75;;;25.26;27.46
6453;BME280;3259;51.080;13.712;2023-06-04T02:53:52;100763.06;;;25.26;27.38
6453;BME280;3259;51.080;13.712;2023-06-04T02:56:41;100765.09;;;25.24;27.38
6453;BME280;3259;51.080;13.712;2023-06-04T02:59:30;100770.44;;;25.24;27.34
6453;BME280;3259;51.080;13.712;2023-06-04T03:02:19;100774.59;;;25.26;27.50
6453;BME280;3259;51.080;13.712;2023-06-04T03:05:08;100771.84;;;25.20;27.82
6453;BME280;3259;51.080;13.712;2023-06-04T03:08:02;100760.97;;;25.21;27.85
6453;BME280;3259;51.080;13.712;2023-06-04T03:10:51;100764.47;;;25.22;27.59
6453;BME280;3259;51.080;13.712;2023-06-04T03:13:40;100764.47;;;25.22;27.47
6453;BME280;3259;51.080;13.712;2023-06-04T03:16:28;100772.19;;;25.17;28.04
6453;BME280;3259;51.080;13.712;2023-06-04T03:19:17;100776.81;;;25.23;27.82
6453;BME280;3259;51.080;13.712;2023-06-04T03:22:07;100772.81;;;25.19;27.48
6453;BME280;3259;51.080;13.712;2023-06-04T03:24:57;100776.97;;;25.21;27.67
6453;BME280;3259;51.080;13.712;2023-06-04T03:27:46;100774.13;;;25.23;27.50
6453;BME280;3259;51.080;13.712;2023-06-04T03:30:35;100783.03;;;25.30;27.67
6453;BME280;3259;51.080;13.712;2023-06-04T03:33:23;100775.88;;;25.30;27.40
6453;BME280;3259;51.080;13.712;2023-06-04T03:36:12;100774.28;;;25.36;27.80
6453;BME280;3259;51.080;13.712;2023-06-04T03:39:03;100786.09;;;25.27;27.65
6453;BME280;3259;51.080;13.712;2023-06-04T03:41:53;100778.91;;;25.13;27.57
6453;BME280;3259;51.080;13.712;2023-06-04T03:44:44;100785.28;;;25.12;27.88
6453;BME280;3259;51.080;13.712;2023-06-04T03:47:33;100779.09;;;25.11;27.69
6453;BME280;3259;51.080;13.712;2023-06-04T03:50:22;100782.59;;;25.12;28.00
6453;BME280;3259;51.080;13.712;2023-06-04T03:53:11;100786.84;;;25.21;27.48
6453;BME280;3259;51.080;13.712;2023-06-04T03:55:59;100795.00;;;25.19;27.42
6453;BME280;3259;51.080;13.712;2023-06-04T03:58:50;100794.56;;;25.16;27.91
6453;BME280;3259;51.080;13.712;2023-06-04T04:01:39;100791.72;;;25.17;27.90
6453;BME280;3259;51.080;13.712;2023-06-04T04:04:27;100795.78;;;25.13;27.65
6453;BME280;3259;51.080;13.712;2023-06-04T04:07:16;100797.59;;;25.13;27.84
6453;BME280;3259;51.080;13.712;2023-06-04T04:10:06;100797.53;;;25.21;27.89
6453;BME280;3259;51.080;13.712;2023-06-04T04:12:54;100797.59;;;25.27;27.73
6453;BME280;3259;51.080;13.712;2023-06-04T04:15:46;100802.88;;;25.21;27.86
6453;BME280;3259;51.080;13.712;2023-06-04T04:18:41;100801.09;;;25.28;27.79
6453;BME280;3259;51.080;13.712;2023-06-04T04:21:30;100804.84;;;25.19;27.67
6453;BME280;3259;51.080;13.712;2023-06-04T04:24:22;100811.53;;;25.23;27.57
6453;BME280;3259;51.080;13.712;2023-06-04T04:27:11;100816.53;;;25.18;28.22
6453;BME280;3259;51.080;13.712;2023-06-04T04:30:00;100804.41;;;25.15;27.98
6453;BME280;3259;51.080;13.712;2023-06-04T04:32:50;100807.00;;;25.09;28.27
6453;BME280;3259;51.080;13.712;2023-06-04T04:35:39;100807.66;;;25.11;28.24
6453;BME280;3259;51.080;13.712;2023-06-04T04:38:29;100810.97;;;25.13;28.46
6453;BME280;3259;51.080;13.712;2023-06-04T04:41:20;100805.63;;;25.13;28.14
6453;BME280;3259;51.080;13.712;2023-06-04T04:44:10;100803.31;;;25.10;28.46
6453;BME280;3259;51.080;13.712;2023-06-04T04:46:58;100794.31;;;25.11;28.63
6453;BME280;3259;51.080;13.712;2023-06-04T04:49:48;100800.53;;;25.18;28.57
6453;BME280;3259;51.080;13.712;2023-06-04T04:52:37;100803.56;;;25.15;28.68
6453;BME280;3259;51.080;13.712;2023-06-04T04:55:26;100806.88;;;25.17;28.51
6453;BME280;3259;51.080;13.712;2023-06-04T04:58:15;100808.03;;;25.08;28.67
6453;BME280;3259;51.080;13.712;2023-06-04T05:01:04;100804.97;;;25.11;28.50
6453;BME280;3259;51.080;13.712;2023-06-04T05:03:53;100807.66;;;25.11;28.85
6453;BME280;3259;51.080;13.712;2023-06-04T05:06:43;100809.94;;;25.14;28.81
6453;BME280;3259;51.080;13.712;2023-06-04T05:09:31;100804.41;;;25.15;28.51
6453;BME280;3259;51.080;13.712;2023-06-04T05:12:20;100805.22;;;25.16;28.57
6453;BME280;3259;51.080;13.712;2023-06-04T05:15:10;100821.25;;;25.16;28.95
6453;BME280;3259;51.080;13.712;2023-06-04T05:17:59;100820.63;;;25.14;28.78
6453;BME280;3259;51.080;13.712;2023-06-04T05:20:50;100814.00;;;25.10;28.76
6453;BME280;3259;51.080;13.712;2023-06-04T05:23:40;100806.34;;;25.07;29.02
6453;BME280;3259;51.080;13.712;2023-06-04T05:26:29;100814.63;;;25.12;28.61
6453;BME280;3259;51.080;13.712;2023-06-04T05:29:18;100813.00;;;25.11;28.70
6453;BME280;3259;51.080;13.712;2023-06-04T05:32:10;100819.34;;;25.10;29.05
6453;BME280;3259;51.080;13.712;2023-06-04T05:34:59;100817.25;;;25.20;28.93
6453;BME280;3259;51.080;13.712;2023-06-04T05:37:51;100828.25;;;25.17;28.92
6453;BME280;3259;51.080;13.712;2023-06-04T05:40:42;100823.28;;;25.14;28.82
6453;BME280;3259;51.080;13.712;2023-06-04T05:43:31;100824.69;;;25.10;28.84
6453;BME280;3259;51.080;13.712;2023-06-04T05:46:19;100821.81;;;25.11;28.92
6453;BME280;3259;51.080;13.712;2023-06-04T05:49:09;100826.34;;;25.11;29.30
6453;BME280;3259;51.080;13.712;2023-06-04T05:51:57;100828.00;;;25.12;29.52
6453;BME280;3259;51.080;13.712;2023-06-04T05:54:46;100825.41;;;25.18;29.35
6453;BME280;3259;51.080;13.712;2023-06-04T05:57:37;100825.88;;;25.22;29.29
6453;BME280;3259;51.080;13.712;2023-06-04T06:00:25;100836.06;;;25.18;29.19
6453;BME280;3259;51.080;13.712;2023-06-04T06:03:14;100837.28;;;25.16;29.18
6453;BME280;3259;51.080;13.712;2023-06-04T06:06:03;100839.03;;;25.23;29.21
6453;BME280;3259;51.080;13.712;2023-06-04T06:08:52;100834.16;;;25.27;29.17
6453;BME280;3259;51.080;13.712;2023-06-04T06:11:41;100823.28;;;25.14;29.60
6453;BME280;3259;51.080;13.712;2023-06-04T06:14:31;100827.72;;;25.21;29.33
6453;BME280;3259;51.080;13.712;2023-06-04T06:17:20;100827.94;;;25.20;29.29
6453;BME280;3259;51.080;13.712;2023-06-04T06:20:10;100832.38;;;25.19;28.97
6453;BME280;3259;51.080;13.712;2023-06-04T06:23:05;100835.22;;;25.18;29.68
6453;BME280;3259;51.080;13.712;2023-06-04T06:25:54;100832.88;;;25.23;29.32
6453;BME280;3259;51.080;13.712;2023-06-04T06:28:43;100833.59;;;25.31;29.13
6453;BME280;3259;51.080;13.712;2023-06-04T06:31:34;100840.13;;;25.29;29.08
6453;BME280;3259;51.080;13.712;2023-06-04T06:34:23;100842.44;;;25.32;28.67
6453;BME280;3259;51.080;13.712;2023-06-04T06:37:12;100838.84;;;25.25;28.79
6453;BME280;3259;51.080;13.712;2023-06-04T06:40:00;100854.63;;;25.20;28.91
6453;BME280;3259;51.080;13.712;2023-06-04T06:42:50;100845.28;;;25.16;28.79
6453;BME280;3259;51.080;13.712;2023-06-04T06:45:39;100843.94;;;25.20;28.57
6453;BME280;3259;51.080;13.712;2023-06-04T06:48:29;100839.41;;;25.20;28.87
6453;BME280;3259;51.080;13.712;2023-06-04T06:51:18;100838.59;;;25.20;28.53
6453;BME280;3259;51.080;13.712;2023-06-04T06:54:08;100845.66;;;25.13;28.61
6453;BME280;3259;51.080;13.712;2023-06-04T06:56:58;100848.28;;;25.21;28.19
6453;BME280;3259;51.080;13.712;2023-06-04T06:59:46;100852.28;;;25.17;28.41
6453;BME280;3259;51.080;13.712;2023-06-04T07:02:38;100847.25;;;25.22;28.23
6453;BME280;3259;51.080;13.712;2023-06-04T07:05:28;100844.47;;;25.15;27.82
6453;BME280;3259;51.080;13.712;2023-06-04T07:08:17;100841.28;;;25.20;28.12
6453;BME280;3259;51.080;13.712;2023-06-04T07:11:06;100838.59;;;25.20;27.82
6453;BME280;3259;51.080;13.712;2023-06-04T07:13:58;100839.31;;;25.14;28.24
6453;BME280;3259;51.080;13.712;2023-06-04T07:16:51;100843.16;;;25.11;28.53
6453;BME280;3259;51.080;13.712;2023-06-04T07:19:40;100844.75;;;25.20;28.25
6453;BME280;3259;51.080;13.712;2023-06-04T07:22:29;100841.16;;;25.28;28.09
6453;BME280;3259;51.080;13.712;2023-06-04T07:25:19;100844.03;;;25.26;28.26
6453;BME280;3259;51.080;13.712;2023-06-04T07:28:09;100830.00;;;25.24;28.50
6453;BME280;3259;51.080;13.712;2023-06-04T07:30:58;100830.84;;;25.25;28.12
6453;BME280;3259;51.080;13.712;2023-06-04T07:33:47;100830.84;;;25.25;28.12
6453;BME280;3259;51.080;13.712;2023-06-04T07:36:35;100838.59;;;25.20;28.47
6453;BME280;3259;51.080;13.712;2023-06-04T07:39:26;100843.94;;;25.20;28.27
6453;BME280;3259;51.080;13.712;2023-06-04T07:42:14;100840.56;;;25.18;28.68
6453;BME280;3259;51.080;13.712;2023-06-04T07:45:04;100842.22;;;25.19;28.72
6453;BME280;3259;51.080;13.712;2023-06-04T07:47:55;100830.75;;;25.18;28.49
6453;BME280;3259;51.080;13.712;2023-06-04T07:50:44;100830.19;;;25.08;28.97
6453;BME280;3259;51.080;13.712;2023-06-04T07:53:33;100833.59;;;25.17;28.51
6453;BME280;3259;51.080;13.712;2023-06-04T07:56:24;100833.59;;;25.17;29.06
6453;BME280;3259;51.080;13.712;2023-06-04T07:59:16;100845.91;;;25.18;28.81
6453;BME280;3259;51.080;13.712;2023-06-04T08:02:05;100837.28;;;25.16;28.39
6453;BME280;3259;51.080;13.712;2023-06-04T08:04:54;100831.47;;;25.27;28.49
6453;BME280;3259;51.080;13.712;2023-06-04T08:07:43;100831.97;;;25.51;28.19
6453;BME280;3259;51.080;13.712;2023-06-04T08:10:32;100828.44;;;25.30;29.16
6453;BME280;3259;51.080;13.712;2023-06-04T08:13:22;100827.16;;;25.26;28.13
6453;BME280;3259;51.080;13.712;2023-06-04T08:16:13;100820.56;;;25.22;28.57
6453;BME280;3259;51.080;13.712;2023-06-04T08:19:02;100815.22;;;25.22;28.62
6453;BME280;3259;51.080;13.712;2023-06-04T08:21:51;100817.88;;;25.22;28.81
6453;BME280;3259;51.080;13.712;2023-06-04T08:24:39;100818.13;;;25.27;28.83
6453;BME280;3259;51.080;13.712;2023-06-04T08:27:28;100813.41;;;25.29;28.74
6453;BME280;3259;51.080;13.712;2023-06-04T08:30:19;100807.53;;;25.33;28.83
6453;BME280;3259;51.080;13.712;2023-06-04T08:33:11;100814.22;;;25.44;27.74
6453;BME280;3259;51.080;13.712;2023-06-04T08:36:00;100814.72;;;25.54;27.37
6453;BME280;3259;51.080;13.712;2023-06-04T08:38:49;100811.81;;;25.49;27.95
6453;BME280;3259;51.080;13.712;2023-06-04T08:41:44;100811.94;;;25.62;28.07
6453;BME280;3259;51.080;13.712;2023-06-04T08:44:33;100813.59;;;25.63;28.11
6453;BME280;3259;51.080;13.712;2023-06-04T08:47:24;100804.50;;;25.57;28.03
6453;BME280;3259;51.080;13.712;2023-06-04T08:50:15;100807.72;;;25.53;27.14
6453;BME280;3259;51.080;13.712;2023-06-04T08:53:05;100810.22;;;25.54;26.30
6453;BME280;3259;51.080;13.712;2023-06-04T08:55:55;100807.38;;;25.56;26.86
6453;BME280;3259;51.080;13.712;2023-06-04T08:58:45;100809.25;;;25.62;27.11
6453;BME280;3259;51.080;13.712;2023-06-04T09:01:38;100801.53;;;25.67;27.12
6453;BME280;3259;51.080;13.712;2023-06-04T09:04:31;100803.53;;;25.65;26.68
6453;BME280;3259;51.080;13.712;2023-06-04T09:07:20;100809.59;;;25.73;26.76
6453;BME280;3259;51.080;13.712;2023-06-04T09:10:09;100800.97;;;25.77;26.33
6453;BME280;3259;51.080;13.712;2023-06-04T09:13:02;100801.38;;;25.75;25.87
6453;BME280;3259;51.080;13.712;2023-06-04T09:15:58;100806.31;;;25.77;26.11
6453;BME280;3259;51.080;13.712;2023-06-04T09:18:48;100802.66;;;25.79;25.54
6453;BME280;3259;51.080;13.712;2023-06-04T09:21:50;100800.63;;;25.81;25.21
6453;BME280;3259;51.080;13.712;2023-06-04T09:24:40;100804.72;;;25.83;25.17
6453;BME280;3259;51.080;13.712;2023-06-04T09:27:37;100807.69;;;25.88;24.82
6453;BME280;3259;51.080;13.712;2023-06-04T09:30:26;100799.88;;;25.87;25.24
6453;BME280;3259;51.080;13.712;2023-06-04T09:33:15;100799.88;;;25.87;25.54
6453;BME280;3259;51.080;13.712;2023-06-04T09:36:04;100809.81;;;25.92;24.88
6453;BME280;3259;51.080;13.712;2023-06-04T09:38:54;100811.19;;;25.88;24.29
6453;BME280;3259;51.080;13.712;2023-06-04T09:41:43;100800.31;;;25.90;24.27
6453;BME280;3259;51.080;13.712;2023-06-04T09:44:42;100808.16;;;25.92;24.49
6453;BME280;3259;51.080;13.712;2023-06-04T09:47:39;100802.91;;;26.04;25.13
6453;BME280;3259;51.080;13.712;2023-06-04T09:50:30;100798.22;;;25.86;24.66
6453;BME280;3259;51.080;13.712;2023-06-04T09:53:20;100801.44;;;25.81;25.30
6453;BME280;3259;51.080;13.712;2023-06-04T09:56:14;100797.56;;;25.83;24.34
6453;BME280;3259;51.080;13.712;2023-06-04T09:59:05;100794.13;;;25.89;24.58
6453;BME280;3259;51.080;13.712;2023-06-04T10:01:56;100791.03;;;25.86;25.07
6453;BME280;3259;51.080;13.712;2023-06-04T10:04:52;100789.03;;;25.74;24.97
6453;BME280;3259;51.080;13.712;2023-06-04T10:07:43;100790.28;;;25.77;24.82
6453;BME280;3259;51.080;13.712;2023-06-04T10:10:34;100780.63;;;25.97;25.38
6453;BME280;3259;51.080;13.712;2023-06-04T10:13:27;100786.38;;;25.94;25.15
6453;BME280;3259;51.080;13.712;2023-06-04T10:16:16;100794.41;;;25.94;25.18
6453;BME280;3259;51.080;13.712;2023-06-04T10:19:20;100788.91;;;26.02;25.17
6453;BME280;3259;51.080;13.712;2023-06-04T10:22:09;100786.47;;;26.07;24.96
6453;BME280;3259;51.080;13.712;2023-06-04T10:24:59;100781.13;;;26.07;25.21
6453;BME280;3259;51.080;13.712;2023-06-04T10:27:51;100784.47;;;26.16;25.03
6453;BME280;3259;51.080;13.712;2023-06-04T10:30:41;100782.88;;;26.21;24.45
6453;BME280;3259;51.080;13.712;2023-06-04T10:33:30;100784.06;;;26.19;24.38
6453;BME280;3259;51.080;13.712;2023-06-04T10:36:22;100791.03;;;26.13;24.85
6453;BME280;3259;51.080;13.712;2023-06-04T10:39:11;100786.88;;;26.04;24.90
6453;BME280;3259;51.080;13.712;2023-06-04T10:42:01;100784.44;;;26.09;25.49
6453;BME280;3259;51.080;13.712;2023-06-04T10:44:52;100789.69;;;26.24;25.12
6453;BME280;3259;51.080;13.712;2023-06-04T10:47:45;100783.00;;;26.41;24.69
6453;BME280;3259;51.080;13.712;2023-06-04T10:50:35;100784.69;;;26.48;24.54
6453;BME280;3259;51.080;13.712;2023-06-04T10:53:36;100788.78;;;26.44;24.10
6453;BME280;3259;51.080;13.712;2023-06-04T10:56:26;100786.63;;;26.27;24.50
6453;BME280;3259;51.080;13.712;2023-06-04T10:59:16;100786.22;;;26.30;24.57
6453;BME280;3259;51.080;13.712;2023-06-04T11:02:05;100777.69;;;26.47;24.84
6453;BME280;3259;51.080;13.712;2023-06-04T11:05:03;100776.56;;;26.63;24.77
6453;BME280;3259;51.080;13.712;2023-06-04T11:07:55;100776.81;;;26.68;24.99
6453;BME280;3259;51.080;13.712;2023-06-04T11:10:45;100774.94;;;26.68;24.85
6453;BME280;3259;51.080;13.712;2023-06-04T11:13:34;100769.38;;;26.63;24.59
6453;BME280;3259;51.080;13.712;2023-06-04T11:16:22;100770.22;;;26.70;24.82
6453;BME280;3259;51.080;13.712;2023-06-04T11:19:11;100764.25;;;26.68;24.20
6453;BME280;3259;51.080;13.712;2023-06-04T11:22:01;100779.22;;;26.56;24.38
6453;BME280;3259;51.080;13.712;2023-06-04T11:24:56;100771.25;;;26.69;24.30
6453;BME280;3259;51.080;13.712;2023-06-04T11:27:45;100762.28;;;26.90;24.60
6453;BME280;3259;51.080;13.712;2023-06-04T11:30:34;100763.13;;;26.90;25.15
6453;BME280;3259;51.080;13.712;2023-06-04T11:33:23;100771.19;;;27.03;24.77
6453;BME280;3259;51.080;13.712;2023-06-04T11:36:22;100769.38;;;27.10;24.64
6453;BME280;3259;51.080;13.712;2023-06-04T11:39:19;100763.38;;;27.08;24.59
6453;BME280;3259;51.080;13.712;2023-06-04T11:42:10;100756.84;;;27.17;24.36
6453;BME280;3259;51.080;13.712;2023-06-04T11:44:59;100747.56;;;27.13;24.47
6453;BME280;3259;51.080;13.712;2023-06-04T11:47:48;100759.44;;;27.04;24.66
6453;BME280;3259;51.080;13.712;2023-06-04T11:50:38;100760.97;;;27.13;24.28
6453;BME280;3259;51.080;13.712;2023-06-04T11:53:28;100756.66;;;27.25;24.93
6453;BME280;3259;51.080;13.712;2023-06-04T11:56:18;100772.31;;;27.28;24.23
6453;BME280;3259;51.080;13.712;2023-06-04T11:59:07;100766.75;;;27.23;24.66
6453;BME280;3259;51.080;13.712;2023-06-04T12:01:58;100758.75;;;27.30;24.41
6453;BME280;3259;51.080;13.712;2023-06-04T12:04:47;100762.44;;;27.22;24.67
6453;BME280;3259;51.080;13.712;2023-06-04T12:07:35;100758.28;;;27.13;24.72
6453;BME280;3259;51.080;13.712;2023-06-04T12:10:24;100751.28;;;27.12;24.32
6453;BME280;3259;51.080;13.712;2023-06-04T12:13:14;100756.84;;;27.17;23.83
6453;BME280;3259;51.080;13.712;2023-06-04T12:16:03;100757.09;;;27.35;23.90
6453;BME280;3259;51.080;13.712;2023-06-04T12:19:04;100758.31;;;27.26;24.12
6453;BME280;3259;51.080;13.712;2023-06-04T12:21:59;100751.72;;;27.29;23.50
6453;BME280;3259;51.080;13.712;2023-06-04T12:24:50;100746.81;;;27.45;23.82
6453;BME280;3259;51.080;13.712;2023-06-04T12:27:47;100751.81;;;27.74;24.39
6453;BME280;3259;51.080;13.712;2023-06-04T12:30:38;100753.00;;;27.72;24.44
6453;BME280;3259;51.080;13.712;2023-06-04T12:33:27;100756.50;;;27.46;24.42
6453;BME280;3259;51.080;13.712;2023-06-04T12:36:15;100748.47;;;27.46;23.77
6453;BME280;3259;51.080;13.712;2023-06-04T12:39:07;100751.75;;;27.35;23.84
6453;BME280;3259;51.080;13.712;2023-06-04T12:41:58;100742.84;;;27.28;23.68
6453;BME280;3259;51.080;13.712;2023-06-04T12:44:47;100741.63;;;27.37;24.27
6453;BME280;3259;51.080;13.712;2023-06-04T12:47:37;100746.38;;;27.22;24.27
6453;BME280;3259;51.080;13.712;2023-06-04T12:50:26;100748.03;;;27.36;24.21
6453;BME280;3259;51.080;13.712;2023-06-04T12:53:15;100746.16;;;27.37;24.05
6453;BME280;3259;51.080;13.712;2023-06-04T12:56:04;100745.97;;;27.38;23.74
6453;BME280;3259;51.080;13.712;2023-06-04T12:58:53;100747.19;;;27.42;23.67
6453;BME280;3259;51.080;13.712;2023-06-04T13:01:41;100737.31;;;27.49;23.79
6453;BME280;3259;51.080;13.712;2023-06-04T13:04:31;100737.94;;;27.38;24.36
6453;BME280;3259;51.080;13.712;2023-06-04T13:07:20;100734.03;;;27.34;24.00
6453;BME280;3259;51.080;13.712;2023-06-04T13:10:11;100734.81;;;27.28;23.59
6453;BME280;3259;51.080;13.712;2023-06-04T13:13:00;100735.25;;;27.38;23.50
6453;BME280;3259;51.080;13.712;2023-06-04T13:15:48;100741.03;;;27.35;23.38
6453;BME280;3259;51.080;13.712;2023-06-04T13:18:37;100731.53;;;27.26;23.04
6453;BME280;3259;51.080;13.712;2023-06-04T13:21:28;100739.75;;;27.18;23.70
6453;BME280;3259;51.080;13.712;2023-06-04T13:24:16;100730.66;;;27.19;24.10
6453;BME280;3259;51.080;13.712;2023-06-04T13:27:06;100727.41;;;27.37;24.06
6453;BME280;3259;51.080;13.712;2023-06-04T13:29:55;100731.53;;;27.39;24.25
6453;BME280;3259;51.080;13.712;2023-06-04T13:32:44;100733.38;;;27.32;23.99
6453;BME280;3259;51.080;13.712;2023-06-04T13:35:32;100730.69;;;27.32;23.88
6453;BME280;3259;51.080;13.712;2023-06-04T13:38:23;100731.53;;;27.46;23.95
6453;BME280;3259;51.080;13.712;2023-06-04T13:41:12;100724.13;;;27.54;23.63
6453;BME280;3259;51.080;13.712;2023-06-04T13:44:00;100720.03;;;27.52;23.81
6453;BME280;3259;51.080;13.712;2023-06-04T13:46:53;100723.94;;;27.49;24.01
6453;BME280;3259;51.080;13.712;2023-06-04T13:49:42;100726.59;;;27.49;23.42
6453;BME280;3259;51.080;13.712;2023-06-04T13:52:31;100717.97;;;27.47;23.10
6453;BME280;3259;51.080;13.712;2023-06-04T13:55:21;100718.75;;;27.35;22.80
6453;BME280;3259;51.080;13.712;2023-06-04T13:58:10;100709.69;;;27.49;23.16
6453;BME280;3259;51.080;13.712;2023-06-04T14:00:59;100710.94;;;27.59;22.70
6453;BME280;3259;51.080;13.712;2023-06-04T14:03:48;100712.59;;;27.47;22.41
6453;BME280;3259;51.080;13.712;2023-06-04T14:06:37;100715.88;;;27.36;22.58
6453;BME280;3259;51.080;13.712;2023-06-04T14:09:29;100715.88;;;27.43;22.45
6453;BME280;3259;51.080;13.712;2023-06-04T14:12:19;100712.56;;;27.28;22.76
6453;BME280;3259;51.080;13.712;2023-06-04T14:15:08;100713.38;;;27.28;22.15
6453;BME280;3259;51.080;13.712;2023-06-04T14:17:57;100706.38;;;27.27;22.92
6453;BME280;3259;51.080;13.712;2023-06-04T14:20:46;100710.53;;;27.49;23.12
6453;BME280;3259;51.080;13.712;2023-06-04T14:23:35;100701.88;;;27.47;23.09
6453;BME280;3259;51.080;13.712;2023-06-04T14:26:25;100702.69;;;27.67;23.30
6453;BME280;3259;51.080;13.712;2023-06-04T14:29:15;100704.75;;;27.46;22.83
6453;BME280;3259;51.080;13.712;2023-06-04T14:32:07;100703.09;;;27.45;22.46
6453;BME280;3259;51.080;13.712;2023-06-04T14:34:55;100706.81;;;27.50;22.20
6453;BME280;3259;51.080;13.712;2023-06-04T14:37:45;100695.47;;;27.61;22.39
6453;BME280;3259;51.080;13.712;2023-06-04T14:40:34;100695.47;;;27.61;22.29
6453;BME280;3259;51.080;13.712;2023-06-04T14:43:22;100698.97;;;27.62;22.67
6453;BME280;3259;51.080;13.712;2023-06-04T14:46:13;100693.59;;;27.68;22.03
6453;BME280;3259;51.080;13.712;2023-06-04T14:49:02;100689.09;;;27.62;21.57
6453;BME280;3259;51.080;13.712;2023-06-04T14:51:50;100688.66;;;27.59;21.57
6453;BME280;3259;51.080;13.712;2023-06-04T14:54:39;100688.66;;;27.52;21.52
6453;BME280;3259;51.080;13.712;2023-06-04T14:57:28;100682.09;;;27.48;21.22
6453;BME280;3259;51.080;13.712;2023-06-04T15:00:20;100682.91;;;27.42;21.30